sensor_id;sensor_type;location;lat;lon;timestamp;P1;durP1;ratioP1;P2;durP2;ratioP2
23179;SDS011;11758;45.756;11.432;2022-08-03T00:01:17;1.52;;;1.42;;
23179;SDS011;11758;45.756;11.432;2022-08-03T00:03:44;1.10;;;1.10;;
23179;SDS011;11758;45.756;11.432;2022-08-03T00:06:10;1.27;;;1.17;;
23179;SDS011;11758;45.756;11.432;2022-08-03T00:08:36;1.73;;;1.20;;
23179;SDS011;11758;45.756;11.432;2022-08-03T00:11:02;1.20;;;1.20;;
23179;SDS011;11758;45.756;11.432;2022-08-03T00:13:31;1.00;;;1.00;;
23179;SDS011;11758;45.756;11.432;2022-08-03T00:15:57;1.20;;;1.20;;
23179;SDS011;11758;45.756;11.432;2022-08-03T00:18:23;1.20;;;1.20;;
23179;SDS011;11758;45.756;11.432;2022-08-03T00:20:50;1.30;;;1.30;;
23179;SDS011;11758;45.756;11.432;2022-08-03T00:23:16;1.13;;;1.13;;
23179;SDS011;11758;45.756;11.432;2022-08-03T00:25:42;3.92;;;1.20;;
23179;SDS011;11758;45.756;11.432;2022-08-03T00:28:08;1.17;;;1.17;;
23179;SDS011;11758;45.756;11.432;2022-08-03T00:30:34;1.13;;;1.13;;
23179;SDS011;11758;45.756;11.432;2022-08-03T00:33:01;1.13;;;1.13;;
23179;SDS011;11758;45.756;11.432;2022-08-03T00:35:27;1.02;;;1.02;;
23179;SDS011;11758;45.756;11.432;2022-08-03T00:37:54;2.33;;;1.40;;
23179;SDS011;11758;45.756;11.432;2022-08-03T00:40:20;1.10;;;1.10;;
23179;SDS011;11758;45.756;11.432;2022-08-03T00:43:07;1.40;;;1.40;;
23179;SDS011;11758;45.756;11.432;2022-08-03T00:45:35;1.23;;;1.23;;
23179;SDS011;11758;45.756;11.432;2022-08-03T00:48:02;1.98;;;1.30;;
23179;SDS011;11758;45.756;11.432;2022-08-03T00:50:29;2.22;;;1.10;;
23179;SDS011;11758;45.756;11.432;2022-08-03T00:52:57;1.23;;;1.20;;
23179;SDS011;11758;45.756;11.432;2022-08-03T00:55:23;1.10;;;1.10;;
23179;SDS011;11758;45.756;11.432;2022-08-03T00:57:50;1.20;;;1.20;;
23179;SDS011;11758;45.756;11.432;2022-08-03T01:00:17;1.38;;;1.25;;
23179;SDS011;11758;45.756;11.432;2022-08-03T01:02:44;2.10;;;1.15;;
23179;SDS011;11758;45.756;11.432;2022-08-03T01:05:10;1.25;;;1.25;;
23179;SDS011;11758;45.756;11.432;2022-08-03T01:10:13;1.10;;;1.10;;
23179;SDS011;11758;45.756;11.432;2022-08-03T01:13:02;1.60;;;1.30;;
23179;SDS011;11758;45.756;11.432;2022-08-03T01:18:25;1.10;;;1.10;;
23179;SDS011;11758;45.756;11.432;2022-08-03T01:20:47;1.13;;;1.10;;
23179;SDS011;11758;45.756;11.432;2022-08-03T01:28:23;1.27;;;1.27;;
23179;SDS011;11758;45.756;11.432;2022-08-03T01:30:51;2.85;;;1.20;;
23179;SDS011;11758;45.756;11.432;2022-08-03T01:33:19;1.40;;;1.30;;
23179;SDS011;11758;45.756;11.432;2022-08-03T01:35:53;1.20;;;1.20;;
23179;SDS011;11758;45.756;11.432;2022-08-03T01:38:41;1.13;;;1.13;;
23179;SDS011;11758;45.756;11.432;2022-08-03T01:41:12;1.30;;;1.30;;
23179;SDS011;11758;45.756;11.432;2022-08-03T01:43:39;1.30;;;1.30;;
23179;SDS011;11758;45.756;11.432;2022-08-03T01:46:07;1.65;;;1.30;;
23179;SDS011;11758;45.756;11.432;2022-08-03T01:48:35;3.17;;;1.23;;
23179;SDS011;11758;45.756;11.432;2022-08-03T01:51:03;5.75;;;1.30;;
23179;SDS011;11758;45.756;11.432;2022-08-03T01:53:33;1.60;;;1.60;;
23179;SDS011;11758;45.756;11.432;2022-08-03T01:56:04;4.10;;;1.50;;
23179;SDS011;11758;45.756;11.432;2022-08-03T01:58:35;1.40;;;1.40;;
23179;SDS011;11758;45.756;11.432;2022-08-03T02:01:01;1.35;;;1.35;;
23179;SDS011;11758;45.756;11.432;2022-08-03T02:03:28;1.30;;;1.30;;
23179;SDS011;11758;45.756;11.432;2022-08-03T02:05:56;1.38;;;1.38;;
23179;SDS011;11758;45.756;11.432;2022-08-03T02:08:23;1.38;;;1.33;;
23179;SDS011;11758;45.756;11.432;2022-08-03T02:10:50;4.50;;;1.60;;
23179;SDS011;11758;45.756;11.432;2022-08-03T02:13:17;1.63;;;1.52;;
23179;SDS011;11758;45.756;11.432;2022-08-03T02:15:44;1.50;;;1.50;;
23179;SDS011;11758;45.756;11.432;2022-08-03T02:18:11;1.35;;;1.30;;
23179;SDS011;11758;45.756;11.432;2022-08-03T02:20:38;1.33;;;1.33;;
23179;SDS011;11758;45.756;11.432;2022-08-03T02:23:05;1.50;;;1.40;;
23179;SDS011;11758;45.756;11.432;2022-08-03T02:25:32;1.50;;;1.50;;
23179;SDS011;11758;45.756;11.432;2022-08-03T02:28:07;1.50;;;1.50;;
23179;SDS011;11758;45.756;11.432;2022-08-03T02:30:34;1.40;;;1.40;;
23179;SDS011;11758;45.756;11.432;2022-08-03T02:33:02;1.55;;;1.52;;
23179;SDS011;11758;45.756;11.432;2022-08-03T02:35:29;3.13;;;1.50;;
23179;SDS011;11758;45.756;11.432;2022-08-03T02:37:59;1.60;;;1.60;;
23179;SDS011;11758;45.756;11.432;2022-08-03T02:40:27;1.80;;;1.70;;
23179;SDS011;11758;45.756;11.432;2022-08-03T02:42:54;4.15;;;1.50;;
23179;SDS011;11758;45.756;11.432;2022-08-03T02:45:21;1.73;;;1.63;;
23179;SDS011;11758;45.756;11.432;2022-08-03T02:47:49;2.85;;;1.40;;
23179;SDS011;11758;45.756;11.432;2022-08-03T02:50:17;1.60;;;1.50;;
23179;SDS011;11758;45.756;11.432;2022-08-03T02:52:44;1.65;;;1.60;;
23179;SDS011;11758;45.756;11.432;2022-08-03T02:55:12;1.48;;;1.48;;
23179;SDS011;11758;45.756;11.432;2022-08-03T02:57:39;2.20;;;1.60;;
23179;SDS011;11758;45.756;11.432;2022-08-03T03:00:06;1.70;;;1.60;;
23179;SDS011;11758;45.756;11.432;2022-08-03T03:02:33;1.90;;;1.80;;
23179;SDS011;11758;45.756;11.432;2022-08-03T03:04:59;2.25;;;1.70;;
23179;SDS011;11758;45.756;11.432;2022-08-03T03:07:26;2.28;;;1.58;;
23179;SDS011;11758;45.756;11.432;2022-08-03T03:09:52;1.60;;;1.50;;
23179;SDS011;11758;45.756;11.432;2022-08-03T03:12:19;1.63;;;1.63;;
23179;SDS011;11758;45.756;11.432;2022-08-03T03:14:46;1.40;;;1.40;;
23179;SDS011;11758;45.756;11.432;2022-08-03T03:17:12;1.67;;;1.60;;
23179;SDS011;11758;45.756;11.432;2022-08-03T03:19:39;1.58;;;1.55;;
23179;SDS011;11758;45.756;11.432;2022-08-03T03:22:06;1.35;;;1.35;;
23179;SDS011;11758;45.756;11.432;2022-08-03T03:24:33;4.25;;;2.63;;
23179;SDS011;11758;45.756;11.432;2022-08-03T03:27:00;1.58;;;1.58;;
23179;SDS011;11758;45.756;11.432;2022-08-03T03:29:27;1.58;;;1.58;;
23179;SDS011;11758;45.756;11.432;2022-08-03T03:31:54;2.15;;;1.60;;
23179;SDS011;11758;45.756;11.432;2022-08-03T03:34:21;1.88;;;1.77;;
23179;SDS011;11758;45.756;11.432;2022-08-03T03:36:47;15.35;;;1.80;;
23179;SDS011;11758;45.756;11.432;2022-08-03T03:39:13;1.65;;;1.65;;
23179;SDS011;11758;45.756;11.432;2022-08-03T03:41:39;2.25;;;1.60;;
23179;SDS011;11758;45.756;11.432;2022-08-03T03:44:06;1.77;;;1.67;;
23179;SDS011;11758;45.756;11.432;2022-08-03T03:46:35;2.35;;;1.85;;
23179;SDS011;11758;45.756;11.432;2022-08-03T03:49:02;1.63;;;1.63;;
23179;SDS011;11758;45.756;11.432;2022-08-03T03:51:30;2.20;;;1.50;;
23179;SDS011;11758;45.756;11.432;2022-08-03T03:54:01;4.50;;;1.67;;
23179;SDS011;11758;45.756;11.432;2022-08-03T03:56:29;1.58;;;1.58;;
23179;SDS011;11758;45.756;11.432;2022-08-03T03:58:56;2.50;;;1.75;;
23179;SDS011;11758;45.756;11.432;2022-08-03T04:01:22;1.60;;;1.50;;
23179;SDS011;11758;45.756;11.432;2022-08-03T04:03:48;1.70;;;1.63;;
23179;SDS011;11758;45.756;11.432;2022-08-03T04:06:14;1.77;;;1.67;;
23179;SDS011;11758;45.756;11.432;2022-08-03T04:08:59;1.85;;;1.70;;
23179;SDS011;11758;45.756;11.432;2022-08-03T04:11:46;1.70;;;1.67;;
23179;SDS011;11758;45.756;11.432;2022-08-03T04:14:15;1.77;;;1.65;;
23179;SDS011;11758;45.756;11.432;2022-08-03T04:16:45;2.63;;;1.65;;
23179;SDS011;11758;45.756;11.432;2022-08-03T04:19:16;2.08;;;1.75;;
23179;SDS011;11758;45.756;11.432;2022-08-03T04:21:43;2.67;;;1.50;;
23179;SDS011;11758;45.756;11.432;2022-08-03T04:24:11;1.90;;;1.67;;
23179;SDS011;11758;45.756;11.432;2022-08-03T04:26:39;2.35;;;1.92;;
23179;SDS011;11758;45.756;11.432;2022-08-03T04:29:05;1.83;;;1.75;;
23179;SDS011;11758;45.756;11.432;2022-08-03T04:31:32;1.67;;;1.67;;
23179;SDS011;11758;45.756;11.432;2022-08-03T04:34:00;2.00;;;1.90;;
23179;SDS011;11758;45.756;11.432;2022-08-03T04:36:27;2.20;;;2.00;;
23179;SDS011;11758;45.756;11.432;2022-08-03T04:39:01;1.67;;;1.65;;
23179;SDS011;11758;45.756;11.432;2022-08-03T04:41:28;3.40;;;1.92;;
23179;SDS011;11758;45.756;11.432;2022-08-03T04:43:56;1.73;;;1.73;;
23179;SDS011;11758;45.756;11.432;2022-08-03T04:46:25;1.90;;;1.80;;
23179;SDS011;11758;45.756;11.432;2022-08-03T04:48:51;1.70;;;1.60;;
23179;SDS011;11758;45.756;11.432;2022-08-03T04:51:18;1.70;;;1.70;;
23179;SDS011;11758;45.756;11.432;2022-08-03T04:53:44;3.75;;;1.60;;
23179;SDS011;11758;45.756;11.432;2022-08-03T04:56:10;1.83;;;1.73;;
23179;SDS011;11758;45.756;11.432;2022-08-03T04:58:36;1.63;;;1.60;;
23179;SDS011;11758;45.756;11.432;2022-08-03T05:01:02;4.28;;;1.40;;
23179;SDS011;11758;45.756;11.432;2022-08-03T05:03:28;1.48;;;1.48;;
23179;SDS011;11758;45.756;11.432;2022-08-03T05:05:55;2.05;;;1.40;;
23179;SDS011;11758;45.756;11.432;2022-08-03T05:08:22;1.40;;;1.40;;
23179;SDS011;11758;45.756;11.432;2022-08-03T05:10:48;1.55;;;1.45;;
23179;SDS011;11758;45.756;11.432;2022-08-03T05:13:14;1.30;;;1.30;;
23179;SDS011;11758;45.756;11.432;2022-08-03T05:15:40;1.75;;;1.60;;
23179;SDS011;11758;45.756;11.432;2022-08-03T05:18:06;1.33;;;1.33;;
23179;SDS011;11758;45.756;11.432;2022-08-03T05:20:32;1.75;;;1.55;;
23179;SDS011;11758;45.756;11.432;2022-08-03T05:22:58;1.40;;;1.30;;
23179;SDS011;11758;45.756;11.432;2022-08-03T05:25:26;2.95;;;1.40;;
23179;SDS011;11758;45.756;11.432;2022-08-03T05:27:52;1.58;;;1.48;;
23179;SDS011;11758;45.756;11.432;2022-08-03T05:30:18;1.48;;;1.48;;
23179;SDS011;11758;45.756;11.432;2022-08-03T05:32:44;1.30;;;1.30;;
23179;SDS011;11758;45.756;11.432;2022-08-03T05:35:10;1.38;;;1.38;;
23179;SDS011;11758;45.756;11.432;2022-08-03T05:37:37;1.27;;;1.27;;
23179;SDS011;11758;45.756;11.432;2022-08-03T05:40:05;1.48;;;1.40;;
23179;SDS011;11758;45.756;11.432;2022-08-03T05:42:36;1.40;;;1.40;;
23179;SDS011;11758;45.756;11.432;2022-08-03T05:45:06;1.30;;;1.30;;
23179;SDS011;11758;45.756;11.432;2022-08-03T05:47:43;1.20;;;1.20;;
23179;SDS011;11758;45.756;11.432;2022-08-03T05:50:17;1.33;;;1.33;;
23179;SDS011;11758;45.756;11.432;2022-08-03T05:52:45;2.70;;;1.67;;
23179;SDS011;11758;45.756;11.432;2022-08-03T05:55:17;1.58;;;1.58;;
23179;SDS011;11758;45.756;11.432;2022-08-03T05:57:45;1.52;;;1.48;;
23179;SDS011;11758;45.756;11.432;2022-08-03T06:00:16;1.50;;;1.50;;
23179;SDS011;11758;45.756;11.432;2022-08-03T06:02:57;1.50;;;1.40;;
23179;SDS011;11758;45.756;11.432;2022-08-03T06:05:52;1.50;;;1.50;;
23179;SDS011;11758;45.756;11.432;2022-08-03T06:08:37;1.67;;;1.50;;
23179;SDS011;11758;45.756;11.432;2022-08-03T06:11:04;1.92;;;1.40;;
23179;SDS011;11758;45.756;11.432;2022-08-03T06:13:30;1.70;;;1.60;;
23179;SDS011;11758;45.756;11.432;2022-08-03T06:15:56;1.92;;;1.60;;
23179;SDS011;11758;45.756;11.432;2022-08-03T06:18:22;2.08;;;1.80;;
23179;SDS011;11758;45.756;11.432;2022-08-03T06:23:34;1.60;;;1.50;;
23179;SDS011;11758;45.756;11.432;2022-08-03T06:26:00;1.65;;;1.52;;
23179;SDS011;11758;45.756;11.432;2022-08-03T06:28:26;1.70;;;1.60;;
23179;SDS011;11758;45.756;11.432;2022-08-03T06:30:53;1.85;;;1.75;;
23179;SDS011;11758;45.756;11.432;2022-08-03T06:33:19;1.63;;;1.52;;
23179;SDS011;11758;45.756;11.432;2022-08-03T06:35:45;1.50;;;1.40;;
23179;SDS011;11758;45.756;11.432;2022-08-03T06:38:11;1.60;;;1.60;;
23179;SDS011;11758;45.756;11.432;2022-08-03T06:40:37;1.50;;;1.50;;
23179;SDS011;11758;45.756;11.432;2022-08-03T06:43:04;1.83;;;1.83;;
23179;SDS011;11758;45.756;11.432;2022-08-03T06:45:38;1.48;;;1.48;;
23179;SDS011;11758;45.756;11.432;2022-08-03T06:48:04;1.45;;;1.45;;
23179;SDS011;11758;45.756;11.432;2022-08-03T06:50:31;1.75;;;1.70;;
23179;SDS011;11758;45.756;11.432;2022-08-03T06:52:58;1.70;;;1.70;;
23179;SDS011;11758;45.756;11.432;2022-08-03T06:55:24;1.67;;;1.67;;
23179;SDS011;11758;45.756;11.432;2022-08-03T06:57:50;1.67;;;1.67;;
23179;SDS011;11758;45.756;11.432;2022-08-03T07:00:17;1.70;;;1.60;;
23179;SDS011;11758;45.756;11.432;2022-08-03T07:02:43;2.28;;;1.38;;
23179;SDS011;11758;45.756;11.432;2022-08-03T07:05:09;1.35;;;1.35;;
23179;SDS011;11758;45.756;11.432;2022-08-03T07:07:36;1.75;;;1.75;;
23179;SDS011;11758;45.756;11.432;2022-08-03T07:10:02;1.50;;;1.50;;
23179;SDS011;11758;45.756;11.432;2022-08-03T07:12:29;1.58;;;1.58;;
23179;SDS011;11758;45.756;11.432;2022-08-03T07:14:56;1.70;;;1.60;;
23179;SDS011;11758;45.756;11.432;2022-08-03T07:17:23;3.40;;;1.80;;
23179;SDS011;11758;45.756;11.432;2022-08-03T07:19:49;1.80;;;1.70;;
23179;SDS011;11758;45.756;11.432;2022-08-03T07:22:15;3.33;;;1.73;;
23179;SDS011;11758;45.756;11.432;2022-08-03T07:24:41;3.03;;;2.00;;
23179;SDS011;11758;45.756;11.432;2022-08-03T07:27:08;4.32;;;1.77;;
23179;SDS011;11758;45.756;11.432;2022-08-03T07:29:34;1.70;;;1.60;;
23179;SDS011;11758;45.756;11.432;2022-08-03T07:32:01;1.77;;;1.70;;
23179;SDS011;11758;45.756;11.432;2022-08-03T07:34:27;1.90;;;1.80;;
23179;SDS011;11758;45.756;11.432;2022-08-03T07:36:53;1.67;;;1.50;;
23179;SDS011;11758;45.756;11.432;2022-08-03T07:39:20;1.90;;;1.80;;
23179;SDS011;11758;45.756;11.432;2022-08-03T07:41:46;1.63;;;1.63;;
23179;SDS011;11758;45.756;11.432;2022-08-03T07:44:14;2.00;;;1.90;;
23179;SDS011;11758;45.756;11.432;2022-08-03T07:46:40;4.55;;;1.73;;
23179;SDS011;11758;45.756;11.432;2022-08-03T07:49:06;2.75;;;1.55;;
23179;SDS011;11758;45.756;11.432;2022-08-03T07:51:38;1.63;;;1.60;;
23179;SDS011;11758;45.756;11.432;2022-08-03T07:54:04;2.00;;;1.90;;
23179;SDS011;11758;45.756;11.432;2022-08-03T07:56:31;1.73;;;1.63;;
23179;SDS011;11758;45.756;11.432;2022-08-03T07:58:58;1.60;;;1.60;;
23179;SDS011;11758;45.756;11.432;2022-08-03T08:01:24;1.77;;;1.73;;
23179;SDS011;11758;45.756;11.432;2022-08-03T08:03:50;2.00;;;1.90;;
23179;SDS011;11758;45.756;11.432;2022-08-03T08:06:16;1.80;;;1.80;;
23179;SDS011;11758;45.756;11.432;2022-08-03T08:08:42;1.90;;;1.80;;
23179;SDS011;11758;45.756;11.432;2022-08-03T08:11:08;4.18;;;1.63;;
23179;SDS011;11758;45.756;11.432;2022-08-03T08:13:34;1.92;;;1.90;;
23179;SDS011;11758;45.756;11.432;2022-08-03T08:16:04;3.80;;;1.70;;
23179;SDS011;11758;45.756;11.432;2022-08-03T08:18:30;1.90;;;1.80;;
23179;SDS011;11758;45.756;11.432;2022-08-03T08:20:56;6.43;;;1.70;;
23179;SDS011;11758;45.756;11.432;2022-08-03T08:23:22;1.75;;;1.65;;
23179;SDS011;11758;45.756;11.432;2022-08-03T08:25:52;1.50;;;1.50;;
23179;SDS011;11758;45.756;11.432;2022-08-03T08:28:21;1.60;;;1.50;;
23179;SDS011;11758;45.756;11.432;2022-08-03T08:30:47;1.50;;;1.50;;
23179;SDS011;11758;45.756;11.432;2022-08-03T08:33:14;4.13;;;1.80;;
23179;SDS011;11758;45.756;11.432;2022-08-03T08:35:40;1.65;;;1.55;;
23179;SDS011;11758;45.756;11.432;2022-08-03T08:38:06;4.43;;;1.70;;
23179;SDS011;11758;45.756;11.432;2022-08-03T08:40:32;2.10;;;1.60;;
23179;SDS011;11758;45.756;11.432;2022-08-03T08:42:58;1.80;;;1.70;;
23179;SDS011;11758;45.756;11.432;2022-08-03T08:45:24;1.90;;;1.70;;
23179;SDS011;11758;45.756;11.432;2022-08-03T08:47:50;1.90;;;1.83;;
23179;SDS011;11758;45.756;11.432;2022-08-03T08:50:17;2.08;;;1.70;;
23179;SDS011;11758;45.756;11.432;2022-08-03T08:52:45;2.75;;;1.80;;
23179;SDS011;11758;45.756;11.432;2022-08-03T08:55:13;1.40;;;1.40;;
23179;SDS011;11758;45.756;11.432;2022-08-03T08:57:43;1.92;;;1.80;;
23179;SDS011;11758;45.756;11.432;2022-08-03T09:00:10;4.85;;;1.70;;
23179;SDS011;11758;45.756;11.432;2022-08-03T09:02:38;1.80;;;1.80;;
23179;SDS011;11758;45.756;11.432;2022-08-03T09:05:08;2.08;;;1.75;;
23179;SDS011;11758;45.756;11.432;2022-08-03T09:07:36;2.05;;;1.90;;
23179;SDS011;11758;45.756;11.432;2022-08-03T09:10:02;1.70;;;1.70;;
23179;SDS011;11758;45.756;11.432;2022-08-03T09:12:28;1.92;;;1.80;;
23179;SDS011;11758;45.756;11.432;2022-08-03T09:14:56;1.83;;;1.83;;
23179;SDS011;11758;45.756;11.432;2022-08-03T09:17:22;2.05;;;2.00;;
23179;SDS011;11758;45.756;11.432;2022-08-03T09:20:05;1.98;;;1.75;;
23179;SDS011;11758;45.756;11.432;2022-08-03T09:22:33;3.35;;;2.00;;
23179;SDS011;11758;45.756;11.432;2022-08-03T09:25:06;1.95;;;1.73;;
23179;SDS011;11758;45.756;11.432;2022-08-03T09:27:42;3.38;;;1.70;;
23179;SDS011;11758;45.756;11.432;2022-08-03T09:30:12;2.60;;;1.65;;
23179;SDS011;11758;45.756;11.432;2022-08-03T09:32:38;4.25;;;1.98;;
23179;SDS011;11758;45.756;11.432;2022-08-03T09:35:04;2.20;;;2.10;;
23179;SDS011;11758;45.756;11.432;2022-08-03T09:37:31;2.58;;;1.95;;
23179;SDS011;11758;45.756;11.432;2022-08-03T09:39:57;5.07;;;1.85;;
23179;SDS011;11758;45.756;11.432;2022-08-03T09:42:23;2.15;;;1.75;;
23179;SDS011;11758;45.756;11.432;2022-08-03T09:44:51;1.63;;;1.63;;
23179;SDS011;11758;45.756;11.432;2022-08-03T09:47:31;2.75;;;1.60;;
23179;SDS011;11758;45.756;11.432;2022-08-03T09:50:04;1.90;;;1.90;;
23179;SDS011;11758;45.756;11.432;2022-08-03T09:52:32;2.17;;;1.98;;
23179;SDS011;11758;45.756;11.432;2022-08-03T09:54:58;2.20;;;1.90;;
23179;SDS011;11758;45.756;11.432;2022-08-03T09:57:25;1.95;;;1.83;;
23179;SDS011;11758;45.756;11.432;2022-08-03T09:59:52;1.80;;;1.70;;
23179;SDS011;11758;45.756;11.432;2022-08-03T10:02:25;1.90;;;1.90;;
23179;SDS011;11758;45.756;11.432;2022-08-03T10:04:53;2.55;;;1.77;;
23179;SDS011;11758;45.756;11.432;2022-08-03T10:07:20;5.57;;;2.08;;
23179;SDS011;11758;45.756;11.432;2022-08-03T10:09:59;1.95;;;1.83;;
23179;SDS011;11758;45.756;11.432;2022-08-03T10:12:25;3.42;;;1.80;;
23179;SDS011;11758;45.756;11.432;2022-08-03T10:14:52;2.25;;;2.10;;
23179;SDS011;11758;45.756;11.432;2022-08-03T10:17:19;2.05;;;1.95;;
23179;SDS011;11758;45.756;11.432;2022-08-03T10:19:48;4.88;;;1.70;;
23179;SDS011;11758;45.756;11.432;2022-08-03T10:22:15;7.03;;;1.90;;
23179;SDS011;11758;45.756;11.432;2022-08-03T10:24:59;2.00;;;1.80;;
23179;SDS011;11758;45.756;11.432;2022-08-03T10:27:31;2.80;;;2.05;;
23179;SDS011;11758;45.756;11.432;2022-08-03T10:29:58;1.88;;;1.88;;
23179;SDS011;11758;45.756;11.432;2022-08-03T10:34:51;5.30;;;2.13;;
23179;SDS011;11758;45.756;11.432;2022-08-03T10:37:19;2.00;;;1.90;;
23179;SDS011;11758;45.756;11.432;2022-08-03T10:39:46;4.10;;;2.00;;
23179;SDS011;11758;45.756;11.432;2022-08-03T10:42:20;3.33;;;1.75;;
23179;SDS011;11758;45.756;11.432;2022-08-03T10:44:49;2.22;;;2.15;;
23179;SDS011;11758;45.756;11.432;2022-08-03T10:47:17;2.30;;;2.20;;
23179;SDS011;11758;45.756;11.432;2022-08-03T10:49:43;2.20;;;2.00;;
23179;SDS011;11758;45.756;11.432;2022-08-03T10:52:11;2.85;;;2.20;;
23179;SDS011;11758;45.756;11.432;2022-08-03T11:00:08;7.03;;;2.22;;
23179;SDS011;11758;45.756;11.432;2022-08-03T11:05:26;4.72;;;1.90;;
23179;SDS011;11758;45.756;11.432;2022-08-03T11:10:41;2.42;;;2.17;;
23179;SDS011;11758;45.756;11.432;2022-08-03T11:13:08;1.90;;;1.90;;
23179;SDS011;11758;45.756;11.432;2022-08-03T11:15:36;3.67;;;2.15;;
23179;SDS011;11758;45.756;11.432;2022-08-03T11:18:09;2.10;;;2.00;;
23179;SDS011;11758;45.756;11.432;2022-08-03T11:20:46;4.72;;;2.10;;
23179;SDS011;11758;45.756;11.432;2022-08-03T11:23:17;2.05;;;2.00;;
23179;SDS011;11758;45.756;11.432;2022-08-03T11:28:30;1.90;;;1.90;;
23179;SDS011;11758;45.756;11.432;2022-08-03T11:31:17;2.08;;;2.00;;
23179;SDS011;11758;45.756;11.432;2022-08-03T11:33:44;3.10;;;2.10;;
23179;SDS011;11758;45.756;11.432;2022-08-03T11:36:28;2.08;;;1.95;;
23179;SDS011;11758;45.756;11.432;2022-08-03T11:39:13;2.92;;;2.20;;
23179;SDS011;11758;45.756;11.432;2022-08-03T11:41:40;2.10;;;2.00;;
23179;SDS011;11758;45.756;11.432;2022-08-03T11:44:06;4.35;;;1.88;;
23179;SDS011;11758;45.756;11.432;2022-08-03T11:46:36;4.55;;;2.13;;
23179;SDS011;11758;45.756;11.432;2022-08-03T11:49:04;2.17;;;2.08;;
23179;SDS011;11758;45.756;11.432;2022-08-03T11:51:31;4.57;;;2.13;;
23179;SDS011;11758;45.756;11.432;2022-08-03T11:53:58;3.50;;;2.08;;
23179;SDS011;11758;45.756;11.432;2022-08-03T11:56:25;2.20;;;2.20;;
23179;SDS011;11758;45.756;11.432;2022-08-03T11:58:53;4.05;;;2.00;;
23179;SDS011;11758;45.756;11.432;2022-08-03T12:01:20;3.72;;;2.10;;
23179;SDS011;11758;45.756;11.432;2022-08-03T12:03:47;2.15;;;2.00;;
23179;SDS011;11758;45.756;11.432;2022-08-03T12:06:14;3.95;;;2.20;;
23179;SDS011;11758;45.756;11.432;2022-08-03T12:08:48;2.00;;;2.00;;
23179;SDS011;11758;45.756;11.432;2022-08-03T12:11:14;2.08;;;2.00;;
23179;SDS011;11758;45.756;11.432;2022-08-03T12:13:41;2.35;;;2.25;;
23179;SDS011;11758;45.756;11.432;2022-08-03T12:16:07;1.95;;;1.85;;
23179;SDS011;11758;45.756;11.432;2022-08-03T12:18:34;2.30;;;2.10;;
23179;SDS011;11758;45.756;11.432;2022-08-03T12:21:05;4.07;;;2.08;;
23179;SDS011;11758;45.756;11.432;2022-08-03T12:23:32;2.10;;;2.00;;
23179;SDS011;11758;45.756;11.432;2022-08-03T12:26:05;2.05;;;1.95;;
23179;SDS011;11758;45.756;11.432;2022-08-03T12:28:31;2.10;;;2.00;;
23179;SDS011;11758;45.756;11.432;2022-08-03T12:31:02;2.38;;;2.00;;
23179;SDS011;11758;45.756;11.432;2022-08-03T12:33:28;2.00;;;2.00;;
23179;SDS011;11758;45.756;11.432;2022-08-03T12:36:02;4.15;;;2.13;;
23179;SDS011;11758;45.756;11.432;2022-08-03T12:38:28;3.75;;;1.83;;
23179;SDS011;11758;45.756;11.432;2022-08-03T12:40:59;2.95;;;2.00;;
23179;SDS011;11758;45.756;11.432;2022-08-03T12:43:25;3.40;;;1.92;;
23179;SDS011;11758;45.756;11.432;2022-08-03T12:45:51;2.50;;;2.28;;
23179;SDS011;11758;45.756;11.432;2022-08-03T12:48:31;2.25;;;2.15;;
23179;SDS011;11758;45.756;11.432;2022-08-03T12:51:06;2.88;;;2.13;;
23179;SDS011;11758;45.756;11.432;2022-08-03T12:53:32;3.90;;;2.03;;
23179;SDS011;11758;45.756;11.432;2022-08-03T12:56:02;5.07;;;2.20;;
23179;SDS011;11758;45.756;11.432;2022-08-03T12:58:30;2.38;;;2.28;;
23179;SDS011;11758;45.756;11.432;2022-08-03T13:00:57;2.15;;;2.05;;
23179;SDS011;11758;45.756;11.432;2022-08-03T13:03:23;2.20;;;2.00;;
23179;SDS011;11758;45.756;11.432;2022-08-03T13:05:49;1.98;;;1.98;;
23179;SDS011;11758;45.756;11.432;2022-08-03T13:08:30;3.42;;;2.17;;
23179;SDS011;11758;45.756;11.432;2022-08-03T13:11:22;2.58;;;2.03;;
23179;SDS011;11758;45.756;11.432;2022-08-03T13:13:50;3.72;;;2.28;;
23179;SDS011;11758;45.756;11.432;2022-08-03T13:16:17;4.43;;;2.20;;
23179;SDS011;11758;45.756;11.432;2022-08-03T13:18:46;4.18;;;1.98;;
23179;SDS011;11758;45.756;11.432;2022-08-03T13:21:14;3.25;;;2.15;;
23179;SDS011;11758;45.756;11.432;2022-08-03T13:23:42;2.13;;;2.03;;
23179;SDS011;11758;45.756;11.432;2022-08-03T13:26:11;2.20;;;2.10;;
23179;SDS011;11758;45.756;11.432;2022-08-03T13:28:39;2.38;;;2.17;;
23179;SDS011;11758;45.756;11.432;2022-08-03T13:31:05;3.97;;;2.25;;
23179;SDS011;11758;45.756;11.432;2022-08-03T13:33:31;2.10;;;2.10;;
23179;SDS011;11758;45.756;11.432;2022-08-03T13:35:57;2.50;;;2.28;;
23179;SDS011;11758;45.756;11.432;2022-08-03T13:38:24;2.40;;;2.20;;
23179;SDS011;11758;45.756;11.432;2022-08-03T13:40:50;2.33;;;2.20;;
23179;SDS011;11758;45.756;11.432;2022-08-03T13:43:17;2.00;;;1.90;;
23179;SDS011;11758;45.756;11.432;2022-08-03T13:45:44;2.00;;;1.90;;
23179;SDS011;11758;45.756;11.432;2022-08-03T13:48:10;5.07;;;2.33;;
23179;SDS011;11758;45.756;11.432;2022-08-03T13:50:36;2.70;;;2.30;;
23179;SDS011;11758;45.756;11.432;2022-08-03T13:53:03;2.20;;;2.10;;
23179;SDS011;11758;45.756;11.432;2022-08-03T13:55:29;2.35;;;1.90;;
23179;SDS011;11758;45.756;11.432;2022-08-03T13:57:55;1.83;;;1.73;;
23179;SDS011;11758;45.756;11.432;2022-08-03T14:00:22;3.03;;;2.20;;
23179;SDS011;11758;45.756;11.432;2022-08-03T14:02:50;4.20;;;2.30;;
23179;SDS011;11758;45.756;11.432;2022-08-03T14:05:16;2.28;;;1.90;;
23179;SDS011;11758;45.756;11.432;2022-08-03T14:07:42;2.53;;;2.33;;
23179;SDS011;11758;45.756;11.432;2022-08-03T14:10:09;2.00;;;1.85;;
23179;SDS011;11758;45.756;11.432;2022-08-03T14:12:35;1.95;;;1.95;;
23179;SDS011;11758;45.756;11.432;2022-08-03T14:15:01;2.08;;;1.98;;
23179;SDS011;11758;45.756;11.432;2022-08-03T14:17:27;3.05;;;1.90;;
23179;SDS011;11758;45.756;11.432;2022-08-03T14:19:55;2.25;;;2.15;;
23179;SDS011;11758;45.756;11.432;2022-08-03T14:22:22;2.22;;;2.13;;
23179;SDS011;11758;45.756;11.432;2022-08-03T14:24:48;2.50;;;2.10;;
23179;SDS011;11758;45.756;11.432;2022-08-03T14:27:14;2.13;;;2.00;;
23179;SDS011;11758;45.756;11.432;2022-08-03T14:29:41;1.80;;;1.80;;
23179;SDS011;11758;45.756;11.432;2022-08-03T14:32:07;2.25;;;2.10;;
23179;SDS011;11758;45.756;11.432;2022-08-03T14:34:33;2.70;;;2.40;;
23179;SDS011;11758;45.756;11.432;2022-08-03T14:37:00;2.97;;;2.08;;
23179;SDS011;11758;45.756;11.432;2022-08-03T14:39:26;5.05;;;2.15;;
23179;SDS011;11758;45.756;11.432;2022-08-03T14:41:52;2.80;;;2.25;;
23179;SDS011;11758;45.756;11.432;2022-08-03T14:44:18;2.15;;;2.05;;
23179;SDS011;11758;45.756;11.432;2022-08-03T14:46:44;3.42;;;1.88;;
23179;SDS011;11758;45.756;11.432;2022-08-03T14:49:11;3.78;;;2.00;;
23179;SDS011;11758;45.756;11.432;2022-08-03T14:51:37;3.38;;;2.10;;
23179;SDS011;11758;45.756;11.432;2022-08-03T14:54:03;2.42;;;2.22;;
23179;SDS011;11758;45.756;11.432;2022-08-03T14:56:29;2.30;;;2.20;;
23179;SDS011;11758;45.756;11.432;2022-08-03T14:58:55;2.30;;;2.10;;
23179;SDS011;11758;45.756;11.432;2022-08-03T15:01:21;2.45;;;2.25;;
23179;SDS011;11758;45.756;11.432;2022-08-03T15:03:47;2.20;;;2.10;;
23179;SDS011;11758;45.756;11.432;2022-08-03T15:06:13;2.13;;;2.05;;
23179;SDS011;11758;45.756;11.432;2022-08-03T15:08:39;2.03;;;2.03;;